Time;durP1;ratioP1;P1;durP2;ratioP2;P2;SDS_P1;SDS_P2;PMS_P1;PMS_P2;Temp;Humidity;BMP_temperature;BMP_pressure;BME280_temperature;BME280_humidity;BME280_pressure;Samples;Min_cycle;Max_cycle;Signal;HPM_P1;HPM_P2
2022/09/29 00:01:53;;;;;;;3.17;2.40;;;8.50;99.90;;;;;;4971953;28;20034;-71
2022/09/29 00:04:18;;;;;;;2.58;1.35;;;8.60;99.90;;;;;;4971501;28;20057;-71
2022/09/29 00:06:44;;;;;;;3.08;1.73;;;8.60;99.90;;;;;;4971870;28;20043;-71
2022/09/29 00:09:10;;;;;;;3.58;1.50;;;8.60;99.90;;;;;;4970552;28;20042;-71
2022/09/29 00:11:36;;;;;;;8.90;3.13;;;8.50;99.90;;;;;;4971993;28;20031;-71
2022/09/29 00:14:02;;;;;;;3.17;2.25;;;8.50;99.90;;;;;;4970664;28;20471;-72
2022/09/29 00:16:28;;;;;;;4.50;2.58;;;8.40;99.90;;;;;;4971818;28;20057;-72
2022/09/29 00:18:55;;;;;;;3.33;2.33;;;8.40;99.90;;;;;;4971787;28;20027;-72
2022/09/29 00:21:21;;;;;;;3.15;2.00;;;8.40;99.90;;;;;;4970548;28;20069;-72
2022/09/29 00:23:49;;;;;;;5.63;2.63;;;8.50;99.90;;;;;;4970457;28;20058;-71
2022/09/29 00:26:21;;;;;;;5.43;3.17;;;8.50;99.90;;;;;;4971596;28;20034;-72
2022/09/29 00:28:57;;;;;;;3.70;1.70;;;8.40;99.90;;;;;;4970278;28;20031;-72
2022/09/29 00:31:29;;;;;;;6.93;2.65;;;8.50;99.90;;;;;;4971723;28;20050;-72
2022/09/29 00:33:55;;;;;;;4.57;1.90;;;8.50;99.90;;;;;;4971573;28;20086;-72
2022/09/29 00:36:23;;;;;;;10.93;3.45;;;8.50;99.90;;;;;;4970371;28;20042;-72
2022/09/29 00:38:53;;;;;;;3.28;2.55;;;8.40;99.90;;;;;;4970188;28;20023;-72
2022/09/29 00:41:23;;;;;;;9.18;2.33;;;8.40;99.90;;;;;;4970476;28;20113;-72
2022/09/29 00:44:13;;;;;;;5.55;2.20;;;8.40;99.90;;;;;;4971164;28;20027;-71
2022/09/29 00:47:02;;;;;;;7.90;4.97;;;8.40;99.90;;;;;;4971613;28;20129;-72
2022/09/29 00:49:50;;;;;;;4.45;3.05;;;8.40;99.90;;;;;;4970977;28;20113;-72
2022/09/29 00:52:27;;;;;;;4.22;2.05;;;8.40;99.90;;;;;;4973775;28;20161;-72
2022/09/29 00:55:04;;;;;;;8.25;2.65;;;8.60;99.90;;;;;;4973564;28;20475;-72
2022/09/29 00:57:36;;;;;;;6.63;2.47;;;8.70;99.90;;;;;;4974032;28;20047;-72
2022/09/29 01:00:11;;;;;;;3.10;1.83;;;8.70;99.90;;;;;;4973331;28;20034;-72
2022/09/29 01:02:42;;;;;;;8.02;3.58;;;8.80;99.90;;;;;;4973293;28;20085;-72
2022/09/29 01:05:15;;;;;;;11.73;4.25;;;8.80;99.90;;;;;;4953818;28;20026;-72
2022/09/29 01:07:45;;;;;;;5.97;4.00;;;8.80;99.90;;;;;;4969458;28;20058;-72
2022/09/29 01:10:15;;;;;;;10.43;4.18;;;8.80;99.90;;;;;;4973425;28;20494;-72
2022/09/29 01:12:44;;;;;;;13.43;4.35;;;8.70;99.90;;;;;;4953726;29;20046;-72
2022/09/29 01:15:13;;;;;;;14.70;6.63;;;8.70;99.90;;;;;;4943596;28;20046;-72
2022/09/29 01:17:39;;;;;;;17.02;6.95;;;8.60;99.90;;;;;;4973173;28;20094;-72
2022/09/29 01:20:17;;;;;;;11.55;4.78;;;8.50;99.90;;;;;;4973162;28;20160;-72
2022/09/29 01:23:20;;;;;;;11.95;5.90;;;8.50;99.90;;;;;;4972908;28;20730;-71
2022/09/29 01:26:26;;;;;;;13.60;6.15;;;8.50;99.90;;;;;;4947028;29;20043;-71
2022/09/29 01:29:26;;;;;;;11.65;4.90;;;8.60;99.90;;;;;;4954510;29;20039;-71
2022/09/29 01:32:47;;;;;;;10.77;3.85;;;8.60;99.90;;;;;;4955035;29;20050;-72
2022/09/29 01:35:40;;;;;;;12.10;4.82;;;8.70;99.90;;;;;;4895083;29;20405;-71
2022/09/29 01:38:17;;;;;;;7.57;3.80;;;8.80;99.90;;;;;;4954799;29;20082;-71
2022/09/29 01:41:07;;;;;;;11.60;4.90;;;8.70;99.90;;;;;;4958185;28;20475;-71
2022/09/29 01:44:03;;;;;;;11.38;4.30;;;8.60;99.90;;;;;;4973556;28;20118;-71
2022/09/29 01:46:49;;;;;;;8.18;5.10;;;8.50;99.90;;;;;;4972707;28;20023;-71
2022/09/29 01:49:18;;;;;;;17.25;6.00;;;8.50;99.90;;;;;;4971646;28;20031;-71
2022/09/29 01:52:08;;;;;;;11.52;4.43;;;8.50;99.90;;;;;;4972319;28;20431;-71
2022/09/29 01:55:08;;;;;;;8.68;4.68;;;8.50;99.90;;;;;;4972838;28;20031;-71
2022/09/29 01:58:07;;;;;;;9.35;4.07;;;8.40;99.90;;;;;;4956966;28;20066;-71
2022/09/29 02:00:44;;;;;;;11.18;6.13;;;8.40;99.90;;;;;;4955676;28;20483;-71
2022/09/29 02:03:25;;;;;;;17.88;7.55;;;8.30;99.90;;;;;;4971761;28;20031;-71
2022/09/29 02:05:57;;;;;;;;;;;8.40;99.90;;;;;;4972968;28;20101;-71
2022/09/29 02:08:52;;;;;;;19.98;8.32;;;8.40;99.90;;;;;;4972325;28;19921;-72
2022/09/29 02:11:18;;;;;;;9.05;5.72;;;8.40;99.90;;;;;;4973495;28;20069;-71
2022/09/29 02:13:50;;;;;;;18.80;6.90;;;8.40;99.90;;;;;;4971766;28;20464;-71
2022/09/29 02:16:22;;;;;;;14.65;6.43;;;8.40;99.90;;;;;;4973275;28;20035;-72
2022/09/29 02:19:01;;;;;;;12.43;7.10;;;8.40;99.90;;;;;;4971775;28;20526;-71
2022/09/29 02:21:28;;;;;;;12.73;6.63;;;8.50;99.90;;;;;;4972138;28;20035;-71
2022/09/29 02:23:55;;;;;;;17.02;8.20;;;8.60;99.90;;;;;;4971681;28;20027;-71
2022/09/29 02:26:24;;;;;;;14.63;6.20;;;8.60;99.90;;;;;;4971811;28;20031;-71
2022/09/29 02:28:51;;;;;;;10.13;5.60;;;8.60;99.90;;;;;;4971767;28;20023;-71
2022/09/29 02:31:18;;;;;;;19.08;7.90;;;8.60;99.90;;;;;;4972613;28;20372;-71
2022/09/29 02:33:43;;;;;;;17.27;6.53;;;8.70;99.90;;;;;;4971630;28;20077;-72
2022/09/29 02:36:58;;;;;;;18.13;5.88;;;8.70;99.90;;;;;;4973050;28;20031;-71
2022/09/29 02:40:07;;;;;;;20.38;7.10;;;8.70;99.90;;;;;;4972730;28;20707;-71
2022/09/29 02:42:41;;;;;;;15.50;8.77;;;8.60;99.90;;;;;;4972478;28;20104;-71
2022/09/29 02:45:44;;;;;;;13.32;5.32;;;8.60;99.90;;;;;;4973163;28;20401;-71
2022/09/29 02:48:31;;;;;;;8.93;5.28;;;8.60;99.90;;;;;;4972578;28;20038;-71
2022/09/29 02:51:57;;;;;;;19.02;7.13;;;8.60;99.90;;;;;;4972803;28;20069;-71
2022/09/29 02:54:30;;;;;;;12.82;6.72;;;8.60;99.90;;;;;;4971354;28;20430;-71
2022/09/29 02:57:39;;;;;;;11.77;8.32;;;8.60;99.90;;;;;;4970890;28;20037;-71
2022/09/29 03:00:15;;;;;;;9.88;5.45;;;8.60;99.90;;;;;;4941027;28;20299;-71
2022/09/29 03:02:43;;;;;;;11.43;5.82;;;8.60;99.90;;;;;;4966014;28;20800;-71
2022/09/29 03:05:21;;;;;;;12.40;7.20;;;8.50;99.90;;;;;;4970755;28;20559;-71
2022/09/29 03:07:48;;;;;;;13.65;6.88;;;8.60;99.90;;;;;;4969843;28;20038;-71
2022/09/29 03:10:15;;;;;;;20.05;7.07;;;8.50;99.90;;;;;;4972392;28;20510;-71
2022/09/29 03:12:41;;;;;;;23.30;10.45;;;8.50;99.90;;;;;;4970498;28;20121;-71
2022/09/29 03:15:10;;;;;;;10.68;6.45;;;8.50;99.90;;;;;;4972176;28;20161;-72
2022/09/29 03:17:35;;;;;;;19.42;6.65;;;8.50;99.90;;;;;;4971755;28;20026;-71
2022/09/29 03:20:01;;;;;;;13.07;7.30;;;8.40;99.90;;;;;;4971975;28;20399;-71
2022/09/29 03:22:27;;;;;;;11.40;7.57;;;8.50;99.90;;;;;;4971774;28;20035;-71
2022/09/29 03:24:53;;;;;;;14.90;6.28;;;8.40;99.90;;;;;;4971942;28;20019;-72
2022/09/29 03:27:18;;;;;;;14.00;7.55;;;8.40;99.90;;;;;;4971823;28;20035;-71
2022/09/29 03:29:44;;;;;;;13.48;7.32;;;8.40;99.90;;;;;;4971845;28;20109;-71
2022/09/29 03:32:10;;;;;;;21.75;8.30;;;8.40;99.90;;;;;;4972211;28;20038;-71
2022/09/29 03:34:36;;;;;;;12.68;6.18;;;8.30;99.90;;;;;;4970485;28;20039;-71
2022/09/29 03:37:02;;;;;;;9.90;6.32;;;8.30;99.90;;;;;;4971714;28;20038;-71
2022/09/29 03:39:28;;;;;;;21.48;7.15;;;8.30;99.90;;;;;;4971452;28;20043;-71
2022/09/29 03:41:54;;;;;;;14.95;5.97;;;8.30;99.90;;;;;;4972227;28;20030;-71
2022/09/29 03:44:20;;;;;;;13.93;5.38;;;8.30;99.90;;;;;;4971529;28;20114;-71
2022/09/29 03:46:46;;;;;;;9.98;5.05;;;8.30;99.90;;;;;;4954519;28;20460;-71
2022/09/29 03:49:14;;;;;;;10.48;5.10;;;8.30;99.90;;;;;;4971470;28;20035;-71
2022/09/29 03:51:41;;;;;;;13.38;6.05;;;8.30;99.90;;;;;;4970569;28;20027;-71
2022/09/29 03:54:07;;;;;;;11.63;5.22;;;8.30;99.90;;;;;;4971370;28;20602;-71
2022/09/29 03:56:33;;;;;;;11.57;6.35;;;8.30;99.90;;;;;;4971746;28;20495;-71
2022/09/29 03:58:59;;;;;;;10.98;5.03;;;8.30;99.90;;;;;;4971472;28;20035;-71
2022/09/29 04:01:25;;;;;;;7.75;4.60;;;8.30;99.90;;;;;;4954279;28;20410;-70
2022/09/29 04:03:51;;;;;;;9.40;4.35;;;8.20;99.90;;;;;;4971446;28;20030;-71
2022/09/29 04:06:16;;;;;;;9.00;4.53;;;8.20;99.90;;;;;;4971676;28;20134;-71
2022/09/29 04:08:42;;;;;;;9.23;5.28;;;8.10;99.90;;;;;;4971394;28;20038;-70
2022/09/29 04:11:08;;;;;;;14.45;6.10;;;8.10;99.90;;;;;;4970380;28;20042;-71
2022/09/29 04:13:34;;;;;;;6.03;3.78;;;8.10;99.90;;;;;;4975925;28;20109;-70
2022/09/29 04:16:04;;;;;;;14.15;5.18;;;8.10;99.90;;;;;;4969035;28;20046;-71
2022/09/29 04:18:31;;;;;;;9.02;5.05;;;8.10;99.90;;;;;;4967247;28;20118;-70
2022/09/29 04:20:59;;;;;;;7.07;4.28;;;8.10;99.90;;;;;;4968414;28;20027;-70
2022/09/29 04:23:29;;;;;;;11.77;4.05;;;8.00;99.90;;;;;;4971467;28;20038;-70
2022/09/29 04:25:57;;;;;;;12.02;6.03;;;8.00;99.90;;;;;;4974195;28;20046;-67
2022/09/29 04:28:24;;;;;;;7.22;4.28;;;8.10;99.90;;;;;;4973944;28;20046;-68
2022/09/29 04:30:50;;;;;;;10.63;4.43;;;8.10;99.90;;;;;;4974927;28;20037;-68
2022/09/29 04:33:19;;;;;;;9.10;4.00;;;8.10;99.90;;;;;;4970504;28;20030;-67
2022/09/29 04:35:45;;;;;;;7.78;3.28;;;8.00;99.90;;;;;;4982413;28;20061;-68
2022/09/29 04:38:11;;;;;;;10.80;4.40;;;8.10;99.90;;;;;;4977934;28;20424;-68
2022/09/29 04:40:37;;;;;;;6.25;3.85;;;8.00;99.90;;;;;;4959895;28;20027;-68
2022/09/29 04:43:04;;;;;;;13.68;5.63;;;7.90;99.90;;;;;;4974420;28;20026;-68
2022/09/29 04:45:29;;;;;;;14.75;6.03;;;7.90;99.90;;;;;;4973712;28;20170;-68
2022/09/29 04:47:55;;;;;;;12.00;6.40;;;7.90;99.90;;;;;;4972866;28;20098;-68
2022/09/29 04:50:22;;;;;;;14.82;5.22;;;7.90;99.90;;;;;;4972951;28;20026;-68
2022/09/29 04:52:47;;;;;;;14.63;5.95;;;7.90;99.90;;;;;;4973841;28;20515;-67
2022/09/29 04:55:16;;;;;;;11.07;5.53;;;8.10;99.90;;;;;;4974340;28;20031;-68
2022/09/29 04:57:43;;;;;;;10.45;5.78;;;8.00;99.90;;;;;;4976463;28;20035;-68
2022/09/29 05:00:10;;;;;;;22.40;6.95;;;8.10;99.90;;;;;;4965310;28;20028;-67
2022/09/29 05:02:37;;;;;;;8.32;4.00;;;8.20;99.90;;;;;;4973721;28;20027;-67
2022/09/29 05:05:05;;;;;;;11.18;4.65;;;8.20;99.90;;;;;;4980201;28;20509;-67
2022/09/29 05:07:33;;;;;;;7.55;3.90;;;8.30;99.90;;;;;;4975707;28;20039;-66
2022/09/29 05:09:59;;;;;;;9.55;4.60;;;8.30;99.90;;;;;;4974204;28;20033;-66
2022/09/29 05:12:25;;;;;;;13.05;5.20;;;8.10;99.90;;;;;;4968824;28;20030;-67
2022/09/29 05:14:51;;;;;;;18.50;7.20;;;8.10;99.90;;;;;;4974321;28;20031;-67
2022/09/29 05:17:16;;;;;;;11.40;5.50;;;8.20;99.90;;;;;;4973264;28;20034;-67
2022/09/29 05:19:42;;;;;;;137.05;70.45;;;8.20;99.90;;;;;;4972905;28;20035;-67
2022/09/29 05:22:08;;;;;;;11.23;6.65;;;8.20;99.90;;;;;;4956506;28;20475;-67
2022/09/29 05:24:33;;;;;;;18.42;7.03;;;8.20;99.90;;;;;;4973987;28;20037;-67
2022/09/29 05:26:59;;;;;;;12.02;5.70;;;8.20;99.90;;;;;;4973607;28;20106;-67
2022/09/29 05:29:25;;;;;;;9.45;4.35;;;8.30;99.90;;;;;;4953210;28;20077;-68
2022/09/29 05:31:51;;;;;;;13.73;6.22;;;8.30;99.90;;;;;;4954184;29;20140;-67
2022/09/29 05:34:16;;;;;;;8.40;4.95;;;8.30;99.90;;;;;;4954249;29;20548;-67
2022/09/29 05:36:43;;;;;;;13.48;6.68;;;8.40;99.90;;;;;;4954586;28;20113;-68
2022/09/29 05:39:10;;;;;;;11.60;5.13;;;8.30;99.90;;;;;;4937143;29;20032;-68
2022/09/29 05:41:36;;;;;;;14.77;4.47;;;8.20;99.90;;;;;;4945865;28;20023;-68
2022/09/29 05:44:02;;;;;;;23.63;7.10;;;8.40;99.90;;;;;;4972174;28;20034;-68
2022/09/29 05:46:28;;;;;;;22.92;10.50;;;8.60;99.90;;;;;;4973767;28;20031;-68
2022/09/29 05:48:54;;;;;;;30.55;9.57;;;8.60;99.90;;;;;;4973500;28;20031;-68
2022/09/29 05:51:23;;;;;;;11.77;6.60;;;8.60;99.90;;;;;;4973295;28;20103;-68
2022/09/29 05:53:50;;;;;;;9.98;4.65;;;8.60;99.90;;;;;;4953873;29;20027;-68
2022/09/29 05:56:20;;;;;;;12.38;6.88;;;8.60;99.90;;;;;;4952489;29;20032;-69
2022/09/29 05:58:46;;;;;;;11.88;6.05;;;8.70;99.90;;;;;;4935399;29;20336;-67
2022/09/29 06:01:19;;;;;;;10.52;6.20;;;8.80;99.90;;;;;;4956676;28;20035;-68
2022/09/29 06:03:45;;;;;;;11.32;5.35;;;8.90;99.90;;;;;;4956905;28;20034;-68
2022/09/29 06:06:23;;;;;;;11.63;6.18;;;8.80;99.90;;;;;;4956222;28;20046;-67
2022/09/29 06:08:50;;;;;;;20.92;9.85;;;8.90;99.90;;;;;;4958744;28;20528;-67
2022/09/29 06:11:23;;;;;;;11.40;6.10;;;8.70;99.90;;;;;;4968440;28;20491;-67
2022/09/29 06:13:52;;;;;;;17.15;5.47;;;8.80;99.90;;;;;;4970369;28;20027;-67
2022/09/29 06:16:22;;;;;;;14.27;5.43;;;8.80;99.90;;;;;;4971816;28;20398;-66
2022/09/29 06:18:51;;;;;;;16.48;5.68;;;8.80;99.90;;;;;;4972504;28;21298;-67
2022/09/29 06:21:24;;;;;;;15.38;5.97;;;8.80;99.90;;;;;;4973154;28;20082;-70
2022/09/29 06:23:52;;;;;;;13.75;6.85;;;8.90;99.90;;;;;;4971569;28;20030;-69
2022/09/29 06:26:20;;;;;;;12.07;6.32;;;8.90;99.90;;;;;;4955237;28;20035;-69
2022/09/29 06:28:46;;;;;;;8.15;4.28;;;8.90;99.90;;;;;;4956105;28;20398;-71
2022/09/29 06:31:17;;;;;;;11.77;5.70;;;8.90;99.90;;;;;;4974222;28;20034;-71
2022/09/29 06:33:44;;;;;;;13.90;4.90;;;9.00;99.90;;;;;;4977425;28;20165;-70
2022/09/29 06:39:25;;;;;;;11.73;4.45;;;9.00;99.90;;;;;;4971757;28;20086;-71
2022/09/29 06:41:53;;;;;;;9.73;5.25;;;9.20;99.90;;;;;;4971351;28;20098;-71
2022/09/29 06:44:29;;;;;;;13.98;5.63;;;9.20;99.90;;;;;;4972302;28;20509;-71
2022/09/29 06:46:56;;;;;;;10.25;5.43;;;9.10;99.90;;;;;;4971046;28;20034;-70
2022/09/29 06:49:22;;;;;;;8.43;3.90;;;9.20;99.90;;;;;;4971019;28;20526;-69
2022/09/29 06:51:51;;;;;;;9.77;5.80;;;9.30;99.90;;;;;;4972423;28;20483;-70
2022/09/29 06:54:23;;;;;;;7.18;4.13;;;9.30;99.90;;;;;;4970983;28;20038;-70
2022/09/29 06:56:51;;;;;;;9.18;3.95;;;9.40;99.90;;;;;;4971146;28;20033;-69
2022/09/29 06:59:16;;;;;;;6.13;3.67;;;9.30;99.90;;;;;;4970962;28;20042;-70
2022/09/29 07:01:42;;;;;;;9.77;4.85;;;9.50;99.90;;;;;;4971309;28;20038;-70
2022/09/29 07:04:09;;;;;;;6.72;3.55;;;9.40;99.90;;;;;;4972017;28;20080;-70
2022/09/29 07:06:35;;;;;;;9.13;4.47;;;9.30;99.90;;;;;;4971717;28;20118;-71
2022/09/29 07:09:00;;;;;;;8.25;3.80;;;9.20;99.90;;;;;;4974951;28;20030;-74
2022/09/29 07:11:27;;;;;;;9.90;5.57;;;9.20;99.90;;;;;;4977205;28;20027;-72
2022/09/29 07:13:53;;;;;;;13.48;5.63;;;9.30;99.90;;;;;;4971661;28;20523;-72
2022/09/29 07:16:22;;;;;;;6.47;3.13;;;9.20;99.90;;;;;;4970934;28;20042;-72
2022/09/29 07:18:48;;;;;;;10.32;5.55;;;9.50;99.90;;;;;;4954653;28;20050;-71
2022/09/29 07:21:18;;;;;;;21.95;4.90;;;9.20;99.90;;;;;;4954888;28;20043;-72
2022/09/29 07:23:45;;;;;;;9.20;4.15;;;9.10;99.90;;;;;;4971672;28;20069;-71
2022/09/29 07:26:12;;;;;;;11.80;6.88;;;9.10;99.90;;;;;;4970977;28;20046;-71
2022/09/29 07:28:38;;;;;;;11.90;5.85;;;9.10;99.90;;;;;;4970830;28;20038;-72
2022/09/29 07:31:11;;;;;;;11.57;5.32;;;9.20;99.90;;;;;;4972286;28;20031;-71
2022/09/29 07:33:36;;;;;;;20.73;8.48;;;9.30;99.90;;;;;;4970481;28;20080;-72
2022/09/29 07:36:03;;;;;;;14.50;5.68;;;9.40;99.90;;;;;;4971372;28;20042;-72
2022/09/29 07:38:29;;;;;;;11.95;4.78;;;9.50;99.90;;;;;;4975021;28;20030;-72
2022/09/29 07:41:05;;;;;;;17.60;8.93;;;9.50;99.90;;;;;;4974042;28;20114;-72
2022/09/29 07:43:31;;;;;;;12.00;6.05;;;9.70;99.90;;;;;;4971244;28;20027;-72
2022/09/29 07:45:59;;;;;;;14.80;6.63;;;9.80;99.90;;;;;;4955456;28;20034;-71
2022/09/29 07:48:26;;;;;;;13.43;7.03;;;9.80;99.90;;;;;;4976103;28;20019;-71
2022/09/29 07:50:52;;;;;;;15.52;4.82;;;10.10;99.90;;;;;;4971263;28;20041;-71
2022/09/29 07:53:18;;;;;;;17.40;5.82;;;10.00;99.90;;;;;;4971176;28;20035;-72
2022/09/29 07:55:43;;;;;;;8.18;2.90;;;10.10;99.90;;;;;;4971565;28;20479;-71
2022/09/29 07:58:09;;;;;;;9.73;4.70;;;10.40;99.90;;;;;;4971460;28;20035;-72
2022/09/29 08:00:35;;;;;;;12.60;5.80;;;10.20;99.90;;;;;;4976077;28;20046;-72
2022/09/29 08:03:08;;;;;;;12.93;4.90;;;10.20;99.90;;;;;;4982162;28;20066;-72
2022/09/29 08:05:35;;;;;;;12.30;4.65;;;10.20;99.90;;;;;;4952553;28;20099;-72
2022/09/29 08:08:03;;;;;;;12.63;7.20;;;10.40;99.90;;;;;;4975091;28;20026;-72
2022/09/29 08:10:31;;;;;;;14.02;5.45;;;10.60;99.90;;;;;;4981225;28;20474;-72
2022/09/29 08:12:58;;;;;;;14.43;6.22;;;10.50;99.90;;;;;;4973280;28;20038;-72
2022/09/29 08:15:24;;;;;;;10.63;6.18;;;10.70;99.90;;;;;;4975034;28;20053;-72
2022/09/29 08:17:54;;;;;;;7.90;4.00;;;10.60;99.90;;;;;;4973467;28;20031;-72
2022/09/29 08:20:25;;;;;;;18.77;6.07;;;10.90;99.90;;;;;;4951506;28;20117;-72
2022/09/29 08:22:51;;;;;;;11.82;5.75;;;10.90;99.90;;;;;;4974896;28;20027;-70
2022/09/29 08:25:20;;;;;;;11.10;6.43;;;10.50;99.90;;;;;;4982807;28;20108;-72
2022/09/29 08:27:49;;;;;;;9.65;5.75;;;10.50;99.90;;;;;;4977334;28;20560;-71
2022/09/29 08:30:14;;;;;;;8.02;4.35;;;10.60;99.90;;;;;;4979883;28;20538;-72
2022/09/29 08:32:40;;;;;;;12.95;6.00;;;10.70;99.90;;;;;;4974459;28;20131;-71
2022/09/29 08:35:06;;;;;;;8.73;4.13;;;10.40;99.90;;;;;;4973385;28;20037;-72
2022/09/29 08:37:32;;;;;;;7.38;3.95;;;10.50;99.90;;;;;;4981282;28;20395;-72
2022/09/29 08:39:58;;;;;;;5.60;3.05;;;10.60;99.90;;;;;;4975772;28;20041;-72
2022/09/29 08:42:50;;;;;;;8.25;4.20;;;10.70;99.90;;;;;;4974323;28;20686;-71
2022/09/29 08:45:29;;;;;;;10.02;3.72;;;10.80;99.90;;;;;;4973861;28;20034;-72
2022/09/29 08:48:10;;;;;;;10.20;4.05;;;10.90;99.90;;;;;;4979339;28;20049;-71
2022/09/29 08:50:52;;;;;;;8.57;3.15;;;11.00;99.90;;;;;;4981554;28;20038;-72
2022/09/29 08:53:21;;;;;;;8.60;3.63;;;11.30;99.90;;;;;;4979992;28;20046;-72
2022/09/29 08:55:57;;;;;;;8.00;4.05;;;11.40;99.90;;;;;;4990126;28;20034;-72
2022/09/29 08:58:23;;;;;;;8.93;3.40;;;10.90;99.90;;;;;;4970889;28;20039;-72
2022/09/29 09:01:20;;;;;;;9.80;3.97;;;11.10;99.90;;;;;;4960042;28;20043;-71
2022/09/29 09:03:49;;;;;;;7.63;4.55;;;11.30;99.90;;;;;;4963881;28;20646;-72
2022/09/29 09:06:22;;;;;;;10.43;4.85;;;11.40;99.90;;;;;;4975970;28;20031;-72
2022/09/29 09:09:17;;;;;;;5.70;3.45;;;11.60;99.90;;;;;;4983164;28;20039;-72
2022/09/29 09:12:17;;;;;;;7.65;3.53;;;11.60;99.90;;;;;;4969460;28;20042;-72
2022/09/29 09:14:52;;;;;;;7.63;3.33;;;11.70;99.90;;;;;;4968897;28;20038;-72
2022/09/29 09:17:44;;;;;;;4.22;2.63;;;11.80;99.90;;;;;;4968799;28;20532;-72
2022/09/29 09:20:58;;;;;;;11.27;3.95;;;12.00;99.90;;;;;;4974167;28;20111;-72
2022/09/29 09:23:56;;;;;;;12.55;3.50;;;12.20;99.90;;;;;;4970393;28;20059;-72
2022/09/29 09:26:41;;;;;;;8.68;3.38;;;12.10;99.90;;;;;;4971646;28;20105;-71
2022/09/29 09:29:27;;;;;;;6.40;3.00;;;12.00;99.90;;;;;;4982967;28;20054;-72
2022/09/29 09:32:13;;;;;;;8.32;3.13;;;12.00;99.90;;;;;;4972481;28;20102;-72
2022/09/29 09:35:17;;;;;;;6.82;3.13;;;11.80;99.90;;;;;;4972797;28;20037;-72
2022/09/29 09:37:46;;;;;;;9.25;3.85;;;12.30;99.90;;;;;;4973901;28;20098;-72
2022/09/29 09:40:28;;;;;;;6.80;3.33;;;12.20;99.90;;;;;;4972373;28;20475;-72
2022/09/29 09:43:32;;;;;;;7.78;3.13;;;12.60;99.90;;;;;;4971948;28;20029;-73
2022/09/29 09:46:28;;;;;;;8.60;3.05;;;12.50;99.90;;;;;;4969253;28;20050;-72
2022/09/29 09:49:19;;;;;;;8.93;4.10;;;12.10;99.90;;;;;;4973553;28;20031;-72
2022/09/29 09:52:23;;;;;;;5.65;3.10;;;12.50;99.90;;;;;;4972626;28;20066;-73
2022/09/29 09:54:57;;;;;;;8.45;3.40;;;12.70;99.90;;;;;;4973366;28;20039;-70
2022/09/29 09:57:49;;;;;;;7.55;2.80;;;13.00;99.90;;;;;;4956456;28;20134;-69
2022/09/29 10:00:54;;;;;;;5.90;2.75;;;13.10;99.90;;;;;;4973511;28;20121;-70
2022/09/29 10:03:20;;;;;;;5.38;2.88;;;13.20;99.90;;;;;;4959093;28;20097;-71
2022/09/29 10:05:47;;;;;;;5.13;2.97;;;13.10;99.90;;;;;;4973275;28;20487;-69
2022/09/29 10:08:28;;;;;;;6.93;2.45;;;13.40;99.90;;;;;;4939823;28;20033;-69
2022/09/29 10:10:56;;;;;;;7.65;3.42;;;13.30;99.90;;;;;;4956129;28;20042;-70
2022/09/29 10:13:26;;;;;;;5.47;3.15;;;13.10;99.90;;;;;;4971424;28;20038;-69
2022/09/29 10:16:19;;;;;;;7.82;2.92;;;13.20;99.90;;;;;;4972571;28;20065;-70
2022/09/29 10:18:51;;;;;;;6.03;3.67;;;13.40;99.90;;;;;;4972998;28;20062;-68
2022/09/29 10:21:42;;;;;;;8.32;3.15;;;13.90;99.90;;;;;;4973044;28;20027;-69
2022/09/29 10:24:32;;;;;;;7.13;2.90;;;14.10;99.90;;;;;;4972562;28;20061;-71
2022/09/29 10:27:00;;;;;;;6.60;3.78;;;13.70;99.90;;;;;;4954762;28;20770;-69
2022/09/29 10:29:49;;;;;;;8.43;3.42;;;13.80;99.90;;;;;;4977475;28;20569;-72
2022/09/29 10:32:36;;;;;;;5.63;3.17;;;14.20;99.90;;;;;;4971022;28;20031;-70
2022/09/29 10:35:25;;;;;;;5.07;2.17;;;14.40;99.90;;;;;;4960808;28;20043;-70
2022/09/29 10:38:06;;;;;;;7.85;2.22;;;14.60;99.90;;;;;;4953432;29;20035;-68
2022/09/29 10:40:34;;;;;;;9.77;2.50;;;14.40;99.90;;;;;;4936588;28;20043;-69
2022/09/29 10:43:26;;;;;;;4.25;2.30;;;14.80;99.90;;;;;;4970888;28;20035;-68
2022/09/29 10:45:57;;;;;;;5.60;2.35;;;15.20;99.90;;;;;;4971427;28;20035;-69
2022/09/29 10:48:25;;;;;;;5.63;2.25;;;14.40;99.90;;;;;;4971450;28;20109;-70
2022/09/29 10:51:02;;;;;;;3.25;1.63;;;14.50;99.90;;;;;;4971207;28;20041;-69
2022/09/29 10:53:40;;;;;;;6.47;2.88;;;15.10;99.90;;;;;;4970888;28;20062;-69
2022/09/29 10:56:23;;;;;;;6.60;2.58;;;15.10;99.90;;;;;;4955266;28;20118;-69
2022/09/29 10:58:58;;;;;;;3.83;1.60;;;15.50;99.90;;;;;;4939646;28;20615;-69
2022/09/29 11:01:30;;;;;;;7.38;2.47;;;15.90;99.90;;;;;;4955441;28;20031;-69
2022/09/29 11:04:02;;;;;;;7.30;1.88;;;16.30;99.90;;;;;;4955104;28;20031;-69
2022/09/29 11:06:31;;;;;;;4.05;2.20;;;17.20;99.90;;;;;;4972433;28;20037;-70
2022/09/29 11:09:04;;;;;;;3.75;1.63;;;16.40;99.90;;;;;;4954350;28;20038;-70
2022/09/29 11:11:53;;;;;;;8.95;2.17;;;15.70;99.90;;;;;;4967343;28;20042;-71
2022/09/29 11:14:39;;;;;;;3.38;2.10;;;14.70;99.90;;;;;;4971572;28;20033;-70
2022/09/29 11:17:27;;;;;;;4.20;2.63;;;14.90;99.90;;;;;;4952834;29;20035;-70
2022/09/29 11:20:01;;;;;;;3.60;1.95;;;15.50;99.90;;;;;;4952941;28;20102;-70
2022/09/29 11:22:49;;;;;;;6.00;2.22;;;16.30;99.90;;;;;;4972164;28;20133;-70
2022/09/29 11:25:58;;;;;;;3.72;1.48;;;17.30;99.90;;;;;;4971835;28;20033;-70
2022/09/29 11:28:33;;;;;;;7.05;1.98;;;17.40;99.90;;;;;;4972128;28;20043;-70
2022/09/29 11:31:58;;;;;;;3.55;1.38;;;17.00;99.90;;;;;;4971929;28;20027;-70
2022/09/29 11:34:55;;;;;;;8.35;2.05;;;17.50;99.90;;;;;;4969889;28;20509;-70
2022/09/29 11:37:35;;;;;;;4.07;1.70;;;15.70;99.90;;;;;;4971877;28;20662;-70
2022/09/29 11:40:52;;;;;;;8.65;1.70;;;17.00;99.90;;;;;;4971802;28;20035;-74
2022/09/29 11:43:40;;;;;;;4.00;1.90;;;15.50;99.90;;;;;;4970627;28;20035;-70
2022/09/29 11:47:10;;;;;;;5.43;1.60;;;16.80;99.90;;;;;;4971250;28;20034;-71
2022/09/29 11:50:05;;;;;;;3.30;1.40;;;17.40;99.90;;;;;;4957154;28;20039;-70
2022/09/29 11:53:17;;;;;;;1.35;0.80;;;16.80;99.90;;;;;;4955956;28;20093;-69
2022/09/29 11:56:16;;;;;;;3.30;1.20;;;17.00;99.90;;;;;;4971863;28;20035;-70
2022/09/29 11:59:13;;;;;;;3.60;1.10;;;16.40;99.90;;;;;;4970895;28;20570;-71
2022/09/29 12:02:40;;;;;;;3.97;1.38;;;16.50;99.90;;;;;;4975509;28;20049;-72
2022/09/29 12:05:21;;;;;;;3.65;1.50;;;16.80;99.90;;;;;;4971222;28;20030;-71
2022/09/29 12:08:13;;;;;;;3.55;1.60;;;16.80;99.90;;;;;;4971128;28;20030;-71
2022/09/29 12:11:10;;;;;;;5.03;1.65;;;16.50;99.90;;;;;;4957115;28;20031;-72
2022/09/29 12:13:48;;;;;;;4.97;1.77;;;15.70;99.90;;;;;;4973936;28;20042;-72
2022/09/29 12:16:23;;;;;;;4.20;1.42;;;16.00;99.90;;;;;;4979570;28;20031;-71
2022/09/29 12:18:57;;;;;;;2.67;1.23;;;15.80;99.90;;;;;;4959809;28;20081;-71
2022/09/29 12:21:49;;;;;;;0.80;0.63;;;15.80;99.90;;;;;;4971816;28;20086;-72
2022/09/29 12:24:54;;;;;;;3.05;0.95;;;15.60;99.90;;;;;;4957139;28;20035;-71
2022/09/29 12:27:30;;;;;;;4.07;2.13;;;15.90;99.90;;;;;;4975080;28;20402;-71
2022/09/29 12:30:29;;;;;;;2.38;0.98;;;15.80;99.90;;;;;;4967272;28;20062;-71
2022/09/29 12:33:21;;;;;;;2.15;1.17;;;15.80;99.90;;;;;;4965436;28;20131;-71
2022/09/29 12:36:42;;;;;;;1.73;0.80;;;15.70;99.90;;;;;;4955259;28;20030;-70
2022/09/29 12:39:28;;;;;;;2.35;1.10;;;16.70;99.90;;;;;;4958939;28;20063;-72
2022/09/29 12:42:07;;;;;;;6.20;0.70;;;16.70;99.90;;;;;;4970377;28;20031;-72
2022/09/29 12:44:51;;;;;;;2.88;1.00;;;17.60;99.90;;;;;;4977571;28;20038;-72
2022/09/29 12:47:58;;;;;;;5.32;1.00;;;18.50;98.90;;;;;;4975461;28;20035;-72
2022/09/29 12:50:37;;;;;;;1.05;0.70;;;17.80;99.40;;;;;;4979431;28;20031;-71
2022/09/29 12:53:42;;;;;;;2.28;1.13;;;17.20;99.90;;;;;;4973170;28;20093;-72
2022/09/29 12:56:32;;;;;;;4.95;1.20;;;16.70;99.90;;;;;;4973521;28;20035;-72
2022/09/29 12:59:50;;;;;;;6.95;1.55;;;16.90;99.90;;;;;;4973404;28;20628;-72
2022/09/29 13:02:26;;;;;;;5.65;1.30;;;16.80;99.90;;;;;;4973875;28;20122;-71
2022/09/29 13:05:39;;;;;;;1.95;0.80;;;17.20;99.90;;;;;;4974580;28;20031;-70
2022/09/29 13:08:30;;;;;;;1.38;0.60;;;17.30;99.90;;;;;;4973072;28;20045;-70
2022/09/29 13:11:13;;;;;;;5.75;0.88;;;17.70;97.70;;;;;;4974397;28;20022;-71
2022/09/29 13:13:45;;;;;;;3.15;0.90;;;17.00;98.90;;;;;;4972743;28;20042;-70
2022/09/29 13:16:23;;;;;;;3.60;1.15;;;17.30;99.90;;;;;;4974410;28;20027;-71
2022/09/29 13:19:10;;;;;;;5.45;1.10;;;17.10;99.90;;;;;;4974008;28;20126;-70
2022/09/29 13:21:58;;;;;;;2.05;0.90;;;17.50;99.90;;;;;;4974005;28;20107;-71
2022/09/29 13:25:15;;;;;;;4.03;1.17;;;16.70;99.90;;;;;;4973627;28;20451;-71
2022/09/29 13:27:45;;;;;;;1.33;0.80;;;16.90;99.90;;;;;;4959320;28;20076;-71
2022/09/29 13:30:13;;;;;;;1.02;0.70;;;16.10;99.90;;;;;;4957010;28;20026;-71
2022/09/29 13:33:10;;;;;;;1.20;0.68;;;16.40;99.90;;;;;;4956488;28;20030;-72
2022/09/29 13:35:43;;;;;;;1.17;0.88;;;16.20;99.90;;;;;;4964383;28;20039;-71
2022/09/29 13:38:26;;;;;;;1.20;0.55;;;16.30;99.90;;;;;;4959303;28;20062;-71
2022/09/29 13:41:15;;;;;;;3.10;0.75;;;16.40;99.90;;;;;;4975706;28;20035;-70